Time;durP1;ratioP1;P1;durP2;ratioP2;P2;SDS_P1;SDS_P2;PMS_P1;PMS_P2;Temp;Humidity;BMP_temperature;BMP_pressure;BME280_temperature;BME280_humidity;BME280_pressure;Samples;Min_cycle;Max_cycle;Signal;HPM_P1;HPM_P2
2021/10/24 00:01:44;;;;;;;173.60;20.10;;;2.50;99.90;;;;;;5031330;28;20049;-70
2021/10/24 00:04:13;;;;;;;31.10;11.60;;;2.40;99.90;;;;;;5031630;28;20885;-69
2021/10/24 00:06:40;;;;;;;23.07;10.87;;;2.60;99.90;;;;;;5029971;28;20057;-69
2021/10/24 00:09:07;;;;;;;67.20;12.77;;;2.60;99.90;;;;;;5030888;28;20053;-69
2021/10/24 00:11:35;;;;;;;32.77;11.07;;;2.70;99.90;;;;;;5030666;28;20647;-69
2021/10/24 00:14:04;;;;;;;110.30;15.13;;;2.60;99.90;;;;;;5031236;28;20060;-70
2021/10/24 00:16:31;;;;;;;87.20;13.53;;;2.50;99.90;;;;;;5030526;28;20714;-72
2021/10/24 00:18:58;;;;;;;112.83;16.93;;;2.30;99.90;;;;;;5031719;28;20045;-69
2021/10/24 00:21:26;;;;;;;66.50;13.07;;;2.40;99.90;;;;;;5030286;28;20053;-69
2021/10/24 00:23:53;;;;;;;114.40;14.90;;;2.50;99.90;;;;;;5034221;28;20091;-69
2021/10/24 00:26:20;;;;;;;40.10;12.37;;;2.50;99.90;;;;;;5035025;28;20098;-69
2021/10/24 00:28:47;;;;;;;216.67;20.90;;;2.60;99.90;;;;;;5035854;28;20111;-69
2021/10/24 00:31:14;;;;;;;109.77;16.83;;;2.50;99.90;;;;;;5036718;28;20076;-69
2021/10/24 00:33:41;;;;;;;80.90;14.33;;;2.50;99.90;;;;;;5039889;28;20302;-69
2021/10/24 00:36:08;;;;;;;130.00;18.60;;;2.60;99.90;;;;;;5039997;28;20057;-69
2021/10/24 00:38:37;;;;;;;75.87;15.93;;;2.50;99.90;;;;;;5038469;28;20099;-69
2021/10/24 00:41:04;;;;;;;49.07;13.07;;;2.50;99.90;;;;;;5035517;28;20060;-69
2021/10/24 00:43:31;;;;;;;88.37;15.87;;;2.70;99.90;;;;;;5035410;28;20106;-69
2021/10/24 00:45:58;;;;;;;83.07;15.13;;;2.60;99.90;;;;;;5035282;28;20140;-69
2021/10/24 00:48:25;;;;;;;226.37;23.07;;;2.50;99.90;;;;;;5033849;28;20049;-69
2021/10/24 00:50:53;;;;;;;73.70;15.03;;;2.50;99.90;;;;;;5034763;28;20068;-69
2021/10/24 00:53:20;;;;;;;171.03;21.27;;;2.60;99.90;;;;;;5035490;28;20076;-69
2021/10/24 00:55:49;;;;;;;132.83;18.57;;;2.40;99.90;;;;;;5033999;28;20518;-69
2021/10/24 00:58:17;;;;;;;70.13;14.43;;;2.50;99.90;;;;;;5035049;28;20049;-69
2021/10/24 01:00:44;;;;;;;184.90;22.20;;;2.60;99.90;;;;;;5034581;28;20095;-69
2021/10/24 01:03:12;;;;;;;206.30;22.00;;;2.60;99.90;;;;;;5033986;28;20057;-69
2021/10/24 01:05:40;;;;;;;92.27;16.37;;;2.50;99.90;;;;;;5033746;28;20076;-69
2021/10/24 01:08:09;;;;;;;187.77;22.50;;;2.60;99.90;;;;;;5034966;28;20063;-67
2021/10/24 01:10:37;;;;;;;83.77;16.13;;;2.40;99.90;;;;;;5034732;28;20055;-67
2021/10/24 01:13:06;;;;;;;40.20;13.43;;;2.40;99.90;;;;;;5035400;28;20467;-67
2021/10/24 01:15:33;;;;;;;42.43;13.60;;;2.60;99.90;;;;;;5034006;28;20456;-67
2021/10/24 01:18:00;;;;;;;117.27;19.43;;;2.60;99.90;;;;;;5034083;28;20223;-67
2021/10/24 01:20:29;;;;;;;64.93;15.13;;;2.70;99.90;;;;;;5034657;28;20056;-67
2021/10/24 01:22:58;;;;;;;114.87;16.77;;;2.70;99.90;;;;;;5034294;28;20049;-67
2021/10/24 01:25:25;;;;;;;87.83;15.00;;;2.70;99.90;;;;;;5033012;28;20107;-69
2021/10/24 01:27:53;;;;;;;166.90;20.60;;;2.70;99.90;;;;;;5034053;28;20601;-70
2021/10/24 01:30:22;;;;;;;88.43;15.30;;;2.70;99.90;;;;;;5033323;28;20091;-70
2021/10/24 01:32:49;;;;;;;180.87;20.83;;;2.60;99.90;;;;;;5033078;28;20049;-69
2021/10/24 01:35:16;;;;;;;41.00;14.00;;;2.50;99.90;;;;;;5033517;28;20053;-69
2021/10/24 01:37:45;;;;;;;141.50;22.43;;;2.70;99.90;;;;;;5033931;28;20053;-72
2021/10/24 01:40:16;;;;;;;90.70;15.40;;;2.70;99.90;;;;;;5033683;28;20053;-69
2021/10/24 01:42:52;;;;;;;63.03;14.77;;;2.80;99.90;;;;;;5032718;28;20049;-69
2021/10/24 01:45:19;;;;;;;242.40;27.47;;;2.70;99.90;;;;;;5033541;28;20090;-70
2021/10/24 01:47:47;;;;;;;94.63;17.57;;;2.60;99.90;;;;;;5032424;28;20456;-69
2021/10/24 01:50:14;;;;;;;62.60;14.73;;;2.60;99.90;;;;;;5034644;28;20049;-69
2021/10/24 01:52:44;;;;;;;148.23;18.90;;;2.70;99.90;;;;;;5033507;28;20049;-72
2021/10/24 01:55:14;;;;;;;79.67;14.33;;;2.50;99.90;;;;;;5033836;28;20059;-69
2021/10/24 01:57:43;;;;;;;54.33;13.17;;;2.40;99.90;;;;;;5034149;28;20049;-69
2021/10/24 02:00:12;;;;;;;109.93;14.93;;;2.40;99.90;;;;;;5034240;28;20057;-69
2021/10/24 02:02:39;;;;;;;66.43;16.87;;;2.60;99.90;;;;;;5015845;28;20421;-69
2021/10/24 02:05:07;;;;;;;121.73;18.47;;;2.50;99.90;;;;;;5034017;28;20148;-69
2021/10/24 02:07:34;;;;;;;120.23;16.60;;;2.40;99.90;;;;;;5032112;28;20065;-69
2021/10/24 02:10:01;;;;;;;53.87;13.43;;;2.40;99.90;;;;;;5033260;28;20053;-69
2021/10/24 02:12:30;;;;;;;121.67;15.57;;;2.50;99.90;;;;;;5034607;28;20135;-69
2021/10/24 02:14:57;;;;;;;106.53;17.03;;;2.50;99.90;;;;;;5033923;28;20056;-69
2021/10/24 02:17:24;;;;;;;39.40;12.33;;;2.10;99.90;;;;;;5032637;28;20048;-69
2021/10/24 02:19:51;;;;;;;52.47;12.83;;;2.40;99.90;;;;;;5033622;28;20084;-69
2021/10/24 02:22:18;;;;;;;44.20;13.07;;;2.50;99.90;;;;;;5032682;28;20057;-69
2021/10/24 02:24:45;;;;;;;42.30;13.20;;;2.60;99.90;;;;;;5033701;28;20049;-69
2021/10/24 02:27:12;;;;;;;39.40;13.33;;;2.70;99.90;;;;;;5032875;28;20942;-69
2021/10/24 02:29:40;;;;;;;54.17;13.47;;;2.70;99.90;;;;;;5031848;28;20319;-69
2021/10/24 02:32:08;;;;;;;31.73;13.10;;;2.70;99.90;;;;;;5033831;28;20045;-69
2021/10/24 02:34:35;;;;;;;35.30;12.10;;;2.60;99.90;;;;;;5031794;28;20846;-70
2021/10/24 02:37:02;;;;;;;36.93;13.27;;;2.50;99.90;;;;;;5031098;28;20049;-69
2021/10/24 02:39:29;;;;;;;28.10;12.10;;;2.50;99.90;;;;;;5032336;28;20060;-69
2021/10/24 02:41:56;;;;;;;68.93;15.27;;;2.50;99.90;;;;;;5032512;28;20056;-69
2021/10/24 02:44:23;;;;;;;22.60;11.50;;;2.50;99.90;;;;;;5033017;28;20487;-70
2021/10/24 02:46:56;;;;;;;32.27;12.43;;;2.50;99.90;;;;;;5031866;28;20722;-69
2021/10/24 02:49:23;;;;;;;55.07;12.37;;;2.40;99.90;;;;;;5031847;28;20498;-69
2021/10/24 02:51:50;;;;;;;28.37;11.60;;;2.40;99.90;;;;;;5032591;28;20061;-69
2021/10/24 02:54:18;;;;;;;98.73;16.07;;;2.40;99.90;;;;;;5031095;28;20473;-69
2021/10/24 02:56:45;;;;;;;112.73;14.23;;;2.40;99.90;;;;;;5032546;28;20126;-69
2021/10/24 02:59:12;;;;;;;59.40;11.87;;;2.40;99.90;;;;;;5032736;28;20365;-69
2021/10/24 03:01:40;;;;;;;37.87;11.57;;;2.40;99.90;;;;;;5032264;28;20049;-69
2021/10/24 03:04:10;;;;;;;50.57;11.90;;;2.40;99.90;;;;;;5032314;28;20166;-69
2021/10/24 03:06:37;;;;;;;51.00;12.70;;;2.50;99.90;;;;;;5031205;28;20052;-69
2021/10/24 03:09:04;;;;;;;42.13;11.60;;;2.30;99.90;;;;;;5033026;28;20114;-70
2021/10/24 03:11:31;;;;;;;43.03;12.47;;;2.30;99.90;;;;;;5031804;28;20438;-70
2021/10/24 03:13:58;;;;;;;88.77;16.30;;;2.30;99.90;;;;;;5031793;28;20057;-71
2021/10/24 03:16:25;;;;;;;55.50;12.10;;;2.20;99.90;;;;;;5030670;28;20049;-70
2021/10/24 03:18:53;;;;;;;56.90;12.53;;;2.20;99.90;;;;;;5032685;28;20126;-70
2021/10/24 03:21:21;;;;;;;96.13;15.07;;;2.30;99.90;;;;;;5032182;28;20076;-69
2021/10/24 03:23:48;;;;;;;47.07;13.00;;;2.20;99.90;;;;;;5032311;28;20053;-70
2021/10/24 03:26:15;;;;;;;66.30;13.73;;;2.20;99.90;;;;;;5031740;28;20045;-69
2021/10/24 03:28:42;;;;;;;103.60;14.50;;;2.20;99.90;;;;;;5032372;28;20506;-69
2021/10/24 03:31:09;;;;;;;97.80;13.80;;;1.90;99.90;;;;;;5032291;28;20057;-69
2021/10/24 03:33:36;;;;;;;151.13;14.60;;;1.90;99.90;;;;;;5031518;28;20053;-69
2021/10/24 03:36:04;;;;;;;102.57;14.23;;;1.90;99.90;;;;;;5030591;28;20417;-69
2021/10/24 03:38:32;;;;;;;45.87;12.37;;;2.00;99.90;;;;;;5031423;28;20200;-69
2021/10/24 03:40:59;;;;;;;34.73;10.40;;;2.00;99.90;;;;;;5031831;28;20057;-69
2021/10/24 03:43:28;;;;;;;49.17;11.33;;;2.10;99.90;;;;;;5031205;28;20048;-69
2021/10/24 03:45:55;;;;;;;46.23;13.40;;;2.10;99.90;;;;;;5031175;28;20068;-70
2021/10/24 03:48:22;;;;;;;55.70;11.90;;;2.00;99.90;;;;;;5031969;28;20089;-69
2021/10/24 03:50:49;;;;;;;56.30;11.97;;;2.00;99.90;;;;;;5031783;28;20083;-69
2021/10/24 03:53:16;;;;;;;70.27;11.43;;;2.00;99.90;;;;;;5031241;28;20425;-69
2021/10/24 03:55:45;;;;;;;88.50;11.83;;;2.10;99.90;;;;;;5031023;28;20461;-69
2021/10/24 03:58:13;;;;;;;66.63;12.87;;;1.90;99.90;;;;;;5030391;28;20049;-69
2021/10/24 04:00:40;;;;;;;151.77;16.77;;;1.80;99.90;;;;;;5031412;28;20053;-69
2021/10/24 04:03:07;;;;;;;96.87;13.97;;;1.70;99.90;;;;;;5031284;28;20472;-69
2021/10/24 04:05:35;;;;;;;95.67;13.30;;;1.70;99.90;;;;;;5029315;28;20324;-69
2021/10/24 04:08:05;;;;;;;128.93;15.07;;;1.80;99.90;;;;;;5031791;28;20056;-69
2021/10/24 04:10:32;;;;;;;117.10;14.93;;;1.70;99.90;;;;;;5030808;28;20083;-69
2021/10/24 04:13:01;;;;;;;62.80;12.07;;;1.40;99.90;;;;;;5030910;28;20463;-69
2021/10/24 04:15:28;;;;;;;33.67;11.30;;;1.50;99.90;;;;;;5030697;28;20533;-69
2021/10/24 04:17:55;;;;;;;69.30;12.63;;;1.60;99.90;;;;;;5031146;28;20060;-69
2021/10/24 04:20:23;;;;;;;64.43;13.07;;;1.60;99.90;;;;;;5030907;28;20379;-69
2021/10/24 04:22:51;;;;;;;33.10;11.37;;;1.50;99.90;;;;;;5031027;28;20075;-69
2021/10/24 04:25:19;;;;;;;33.07;12.30;;;1.50;99.90;;;;;;5030134;28;20103;-69
2021/10/24 04:27:46;;;;;;;35.00;11.67;;;1.60;99.90;;;;;;5033329;28;20059;-69
2021/10/24 04:30:14;;;;;;;41.40;12.87;;;1.50;99.90;;;;;;5031866;28;20057;-69
2021/10/24 04:32:43;;;;;;;22.17;10.27;;;1.40;99.90;;;;;;5031522;28;20080;-69
2021/10/24 04:35:11;;;;;;;19.60;10.43;;;1.40;99.90;;;;;;5030826;28;20084;-69
2021/10/24 04:37:38;;;;;;;19.83;9.83;;;1.30;99.90;;;;;;5032451;28;20053;-70
2021/10/24 04:40:07;;;;;;;22.07;10.33;;;1.30;99.90;;;;;;5031654;28;20099;-70
2021/10/24 04:42:35;;;;;;;25.90;10.63;;;1.30;99.90;;;;;;5031303;28;20053;-68
2021/10/24 04:45:02;;;;;;;24.97;9.83;;;1.20;99.90;;;;;;5030438;28;20456;-67
2021/10/24 04:47:30;;;;;;;26.00;9.93;;;1.20;99.90;;;;;;5030774;28;20045;-68
2021/10/24 04:49:57;;;;;;;22.00;9.90;;;1.10;99.90;;;;;;5031986;28;20171;-68
2021/10/24 04:52:24;;;;;;;20.10;9.53;;;1.10;99.90;;;;;;5031349;28;20049;-68
2021/10/24 04:54:51;;;;;;;17.93;8.80;;;1.10;99.90;;;;;;5031409;28;20057;-68
2021/10/24 04:57:18;;;;;;;20.43;9.27;;;1.10;99.90;;;;;;5031202;28;20052;-68
2021/10/24 04:59:45;;;;;;;19.33;9.17;;;1.00;99.90;;;;;;5031102;28;20383;-68
2021/10/24 05:02:12;;;;;;;17.03;8.77;;;1.00;99.90;;;;;;5031347;28;20107;-68
2021/10/24 05:04:41;;;;;;;19.60;8.83;;;0.90;99.90;;;;;;5030327;28;20046;-69
2021/10/24 05:07:08;;;;;;;19.43;8.60;;;0.90;99.90;;;;;;5030083;28;20509;-69
2021/10/24 05:09:35;;;;;;;21.10;9.00;;;0.90;99.90;;;;;;5030380;28;20510;-69
2021/10/24 05:12:02;;;;;;;20.80;9.03;;;0.80;99.90;;;;;;5030845;28;20053;-69
2021/10/24 05:14:29;;;;;;;20.13;9.07;;;0.80;99.90;;;;;;5030621;28;20060;-70
2021/10/24 05:16:56;;;;;;;17.67;8.70;;;0.80;99.90;;;;;;5030772;28;20052;-70
2021/10/24 05:19:23;;;;;;;18.93;9.00;;;0.70;99.90;;;;;;5033529;28;20052;-69
2021/10/24 05:21:51;;;;;;;25.10;9.80;;;0.80;99.90;;;;;;5034995;28;20053;-70
2021/10/24 05:24:18;;;;;;;22.63;9.97;;;0.90;99.90;;;;;;5033616;28;20114;-70
2021/10/24 05:26:45;;;;;;;17.07;8.07;;;0.70;99.90;;;;;;5033947;28;20049;-70
2021/10/24 05:29:13;;;;;;;19.20;8.80;;;0.70;99.90;;;;;;5034657;28;20049;-69
2021/10/24 05:31:40;;;;;;;18.50;8.97;;;0.60;99.90;;;;;;5034056;28;20410;-69
2021/10/24 05:34:07;;;;;;;16.87;8.03;;;0.60;99.90;;;;;;5034702;28;20056;-69
2021/10/24 05:36:34;;;;;;;18.60;8.33;;;0.60;99.90;;;;;;5033702;28;20053;-70
2021/10/24 05:39:02;;;;;;;18.40;8.80;;;0.70;99.90;;;;;;5034249;28;20048;-70
2021/10/24 05:41:31;;;;;;;17.03;8.50;;;0.60;99.90;;;;;;5034451;28;20049;-70
2021/10/24 05:43:59;;;;;;;19.77;8.30;;;0.60;99.90;;;;;;5033896;28;20493;-70
2021/10/24 05:46:26;;;;;;;20.27;8.73;;;0.70;99.90;;;;;;5032796;28;20057;-69
2021/10/24 05:48:53;;;;;;;20.27;9.20;;;0.70;99.90;;;;;;5033966;28;20088;-70
2021/10/24 05:51:20;;;;;;;19.67;8.70;;;0.70;99.90;;;;;;5034476;28;20106;-69
2021/10/24 05:53:47;;;;;;;16.97;8.77;;;0.60;99.90;;;;;;5034123;28;20052;-69
2021/10/24 05:56:16;;;;;;;23.27;9.00;;;0.60;99.90;;;;;;5033911;28;20700;-69
2021/10/24 05:58:43;;;;;;;16.50;8.87;;;0.60;99.90;;;;;;5035110;28;20114;-70
2021/10/24 06:01:10;;;;;;;18.03;8.83;;;0.60;99.90;;;;;;5033942;28;20057;-70
2021/10/24 06:03:37;;;;;;;22.13;8.90;;;0.60;99.90;;;;;;5033543;28;20061;-69
2021/10/24 06:06:04;;;;;;;17.63;9.13;;;0.60;99.90;;;;;;5033035;28;20053;-69
2021/10/24 06:08:32;;;;;;;20.57;9.00;;;0.60;99.90;;;;;;5033281;28;20153;-70
2021/10/24 06:11:13;;;;;;;18.90;8.90;;;0.70;99.90;;;;;;5034208;28;20060;-70
2021/10/24 06:13:42;;;;;;;18.10;9.60;;;0.70;99.90;;;;;;5036356;28;20228;-70
2021/10/24 06:16:09;;;;;;;15.00;8.40;;;0.70;99.90;;;;;;5037400;28;20056;-72
2021/10/24 06:18:37;;;;;;;18.00;9.10;;;0.70;99.90;;;;;;5037996;28;20703;-70
2021/10/24 06:21:04;;;;;;;22.43;9.27;;;0.80;99.90;;;;;;5038244;28;20084;-70
2021/10/24 06:23:31;;;;;;;18.10;8.60;;;0.70;99.90;;;;;;5037364;28;20119;-69
2021/10/24 06:25:59;;;;;;;20.40;9.43;;;0.70;99.90;;;;;;5038022;28;20091;-70
2021/10/24 06:28:26;;;;;;;18.53;9.37;;;0.80;99.90;;;;;;5036877;28;20091;-69
2021/10/24 06:30:54;;;;;;;23.97;8.60;;;0.80;99.90;;;;;;5038671;28;20547;-70
2021/10/24 06:33:21;;;;;;;16.70;8.17;;;1.00;99.90;;;;;;5038368;28;20106;-70
2021/10/24 06:35:48;;;;;;;18.27;8.60;;;1.00;99.90;;;;;;5037348;28;20045;-70
2021/10/24 06:38:17;;;;;;;19.67;9.00;;;1.00;99.90;;;;;;5036254;28;20057;-70
2021/10/24 06:40:45;;;;;;;20.70;9.40;;;1.00;99.90;;;;;;5035199;28;20052;-70
2021/10/24 06:43:12;;;;;;;14.60;8.37;;;1.00;99.90;;;;;;5035256;28;20055;-70
2021/10/24 06:45:39;;;;;;;21.40;9.23;;;1.10;99.90;;;;;;5035202;28;20041;-70
2021/10/24 06:48:07;;;;;;;17.07;8.47;;;1.10;99.90;;;;;;5035842;28;20045;-68
2021/10/24 06:50:35;;;;;;;17.07;8.10;;;1.20;99.90;;;;;;5035094;28;20695;-68
2021/10/24 06:53:02;;;;;;;18.50;8.10;;;1.20;99.90;;;;;;5036213;28;20055;-69
2021/10/24 06:55:29;;;;;;;18.07;7.97;;;1.20;99.90;;;;;;5033839;28;20477;-68
2021/10/24 06:57:57;;;;;;;17.47;8.17;;;1.20;99.90;;;;;;5037252;28;20521;-69
2021/10/24 07:00:26;;;;;;;19.27;8.67;;;1.20;99.90;;;;;;5035236;28;20118;-69
2021/10/24 07:02:54;;;;;;;16.10;8.93;;;1.20;99.90;;;;;;5035788;28;20049;-69
2021/10/24 07:05:23;;;;;;;15.43;7.80;;;1.30;99.90;;;;;;5035316;28;20408;-68
2021/10/24 07:07:50;;;;;;;17.20;8.77;;;1.30;99.90;;;;;;5037697;28;20129;-69
2021/10/24 07:10:18;;;;;;;18.77;8.57;;;1.40;99.90;;;;;;5035048;28;20064;-69
2021/10/24 07:12:50;;;;;;;16.33;8.17;;;1.50;99.90;;;;;;5037879;28;20049;-69
2021/10/24 07:15:18;;;;;;;17.77;8.23;;;1.50;99.90;;;;;;5037764;28;20520;-69
2021/10/24 07:17:45;;;;;;;15.87;8.50;;;1.60;99.90;;;;;;5038095;28;20045;-69
2021/10/24 07:20:13;;;;;;;19.67;9.03;;;1.60;99.90;;;;;;5038935;28;20057;-69
2021/10/24 07:22:41;;;;;;;18.77;8.63;;;1.70;99.90;;;;;;5035631;28;20057;-69
2021/10/24 07:25:09;;;;;;;18.70;8.27;;;1.80;99.90;;;;;;5038615;28;20103;-69
2021/10/24 07:27:36;;;;;;;15.70;8.33;;;1.80;99.90;;;;;;5037115;28;20084;-69
2021/10/24 07:30:05;;;;;;;18.57;9.33;;;1.90;99.90;;;;;;5039208;28;20086;-69
2021/10/24 07:32:32;;;;;;;19.37;8.67;;;2.00;99.90;;;;;;5037451;28;20480;-69
2021/10/24 07:34:59;;;;;;;19.97;8.20;;;2.00;99.90;;;;;;5037200;28;20084;-69
2021/10/24 07:37:26;;;;;;;15.97;8.23;;;2.20;99.90;;;;;;5037758;28;20060;-69
2021/10/24 07:39:54;;;;;;;16.53;8.03;;;2.30;99.90;;;;;;5037847;28;20591;-69
2021/10/24 07:42:21;;;;;;;17.87;8.87;;;2.40;99.90;;;;;;5037932;28;20049;-68
2021/10/24 07:44:48;;;;;;;20.80;7.90;;;2.50;99.90;;;;;;5038381;28;20705;-69
2021/10/24 07:47:15;;;;;;;14.33;8.10;;;2.60;99.90;;;;;;5038599;28;20456;-69
2021/10/24 07:49:43;;;;;;;14.10;7.57;;;2.60;99.90;;;;;;5038857;28;20448;-69
2021/10/24 07:52:10;;;;;;;15.73;7.93;;;2.90;99.90;;;;;;5038540;28;20087;-69
2021/10/24 07:54:37;;;;;;;16.10;7.20;;;3.40;99.90;;;;;;5038089;28;20064;-69
2021/10/24 07:57:06;;;;;;;13.48;7.20;;;3.80;99.90;;;;;;5036536;28;20406;-69
2021/10/24 07:59:33;;;;;;;13.55;7.45;;;3.80;99.90;;;;;;5036040;28;20088;-69
2021/10/24 08:02:00;;;;;;;15.98;7.28;;;3.90;99.90;;;;;;5035997;28;20049;-69
2021/10/24 08:04:27;;;;;;;14.30;6.63;;;4.20;99.90;;;;;;5035806;28;20052;-71
2021/10/24 08:06:54;;;;;;;18.58;7.60;;;4.40;99.90;;;;;;5036949;28;20052;-70
2021/10/24 08:09:21;;;;;;;12.15;5.82;;;4.90;99.90;;;;;;5035247;28;20087;-71
2021/10/24 08:11:48;;;;;;;13.88;6.80;;;5.90;99.90;;;;;;5035581;28;20045;-70
2021/10/24 08:14:17;;;;;;;11.75;5.57;;;9.80;99.90;;;;;;5035037;28;20053;-69
2021/10/24 08:16:44;;;;;;;11.75;5.55;;;13.70;99.90;;;;;;5033891;28;20431;-69
2021/10/24 08:19:11;;;;;;;12.75;5.72;;;15.50;99.90;;;;;;5035316;28;20084;-69
2021/10/24 08:21:38;;;;;;;10.15;5.22;;;16.50;99.90;;;;;;5036107;28;20137;-69
2021/10/24 08:24:06;;;;;;;9.02;5.22;;;17.20;99.90;;;;;;5034283;28;20049;-69
2021/10/24 08:26:34;;;;;;;10.75;5.43;;;18.10;99.90;;;;;;5034051;28;20111;-69
2021/10/24 08:29:01;;;;;;;11.10;5.18;;;18.10;99.70;;;;;;5035297;28;20500;-69
2021/10/24 08:31:30;;;;;;;10.77;5.22;;;19.40;98.30;;;;;;5035108;28;20118;-69
2021/10/24 08:33:58;;;;;;;12.82;6.15;;;17.70;97.50;;;;;;5034214;28;20055;-69
2021/10/24 08:36:27;;;;;;;11.65;5.90;;;16.70;98.60;;;;;;5034954;28;20344;-69
2021/10/24 08:38:56;;;;;;;11.10;5.45;;;20.40;98.10;;;;;;5034938;28;20061;-68
2021/10/24 08:41:27;;;;;;;9.40;5.22;;;20.80;97.10;;;;;;5034483;28;20416;-68
2021/10/24 08:43:55;;;;;;;10.07;5.50;;;21.80;96.60;;;;;;5036109;28;20156;-68
2021/10/24 08:46:23;;;;;;;10.48;6.20;;;22.30;95.20;;;;;;5035326;28;20659;-68
2021/10/24 08:48:52;;;;;;;8.80;5.38;;;22.20;95.50;;;;;;5035081;28;20080;-68
2021/10/24 08:51:19;;;;;;;10.30;5.57;;;22.00;95.10;;;;;;5035001;28;20132;-68
2021/10/24 08:53:48;;;;;;;9.48;5.93;;;22.80;94.10;;;;;;5038450;28;20057;-69
2021/10/24 08:56:17;;;;;;;11.90;5.85;;;22.80;94.00;;;;;;5037687;28;20138;-69
2021/10/24 08:58:45;;;;;;;10.45;5.20;;;22.40;94.20;;;;;;5038445;28;20091;-69
2021/10/24 09:01:13;;;;;;;8.88;5.45;;;22.90;93.80;;;;;;5039046;28;20057;-69
2021/10/24 09:04:06;;;;;;;9.20;5.28;;;22.40;93.70;;;;;;5035355;28;20053;-69
2021/10/24 09:06:53;;;;;;;10.25;5.05;;;22.90;93.80;;;;;;5033928;28;20092;-69
2021/10/24 09:09:21;;;;;;;8.15;5.32;;;23.20;93.50;;;;;;5035028;28;20135;-69
2021/10/24 09:11:57;;;;;;;10.27;5.05;;;22.70;93.10;;;;;;5034469;28;20134;-69
2021/10/24 09:14:48;;;;;;;9.13;5.15;;;23.40;93.10;;;;;;5036751;28;20460;-69
2021/10/24 09:17:17;;;;;;;9.30;5.35;;;22.60;91.60;;;;;;5037134;28;20057;-69
2021/10/24 09:19:49;;;;;;;8.15;4.25;;;22.90;92.60;;;;;;5037288;28;20061;-69
2021/10/24 09:22:27;;;;;;;8.88;4.43;;;21.80;91.70;;;;;;5035419;28;20057;-70
2021/10/24 09:25:10;;;;;;;8.80;4.43;;;23.00;91.40;;;;;;5038393;28;20048;-69
2021/10/24 09:27:46;;;;;;;8.55;4.22;;;23.10;92.30;;;;;;5037735;28;20076;-69
2021/10/24 09:30:16;;;;;;;8.95;4.60;;;22.90;91.60;;;;;;5035454;28;20060;-69
2021/10/24 09:32:52;;;;;;;5.95;3.42;;;23.20;91.60;;;;;;5034699;28;20085;-69
2021/10/24 09:35:25;;;;;;;6.05;2.80;;;21.00;90.10;;;;;;5033130;28;20769;-69
2021/10/24 09:37:52;;;;;;;5.88;2.67;;;22.20;89.20;;;;;;5035222;28;20141;-69
2021/10/24 09:40:25;;;;;;;6.55;3.08;;;22.50;90.10;;;;;;5033842;28;20228;-70
2021/10/24 09:43:16;;;;;;;7.40;2.83;;;21.80;90.50;;;;;;5034593;28;20053;-69
2021/10/24 09:45:45;;;;;;;8.18;2.85;;;23.00;89.40;;;;;;5033568;28;20115;-69
2021/10/24 09:48:14;;;;;;;7.68;2.60;;;23.10;87.60;;;;;;5034027;28;20056;-69
2021/10/24 09:50:46;;;;;;;9.05;2.47;;;21.40;89.60;;;;;;5033276;28;20061;-68
2021/10/24 09:53:15;;;;;;;7.57;2.30;;;21.40;89.90;;;;;;5033865;28;20266;-69
2021/10/24 09:55:44;;;;;;;7.10;2.67;;;20.70;90.10;;;;;;5033571;28;20059;-68
2021/10/24 09:58:12;;;;;;;6.55;2.40;;;21.20;90.70;;;;;;5034963;28;20107;-68
2021/10/24 10:00:40;;;;;;;5.88;2.08;;;20.90;90.70;;;;;;5033441;28;20413;-68
2021/10/24 10:03:08;;;;;;;10.48;2.53;;;21.00;90.20;;;;;;5033949;28;20102;-68
2021/10/24 10:05:36;;;;;;;7.10;2.20;;;21.30;90.20;;;;;;5033035;28;20528;-69
2021/10/24 10:08:09;;;;;;;5.47;2.42;;;20.70;90.40;;;;;;5033957;28;20049;-69
2021/10/24 10:10:39;;;;;;;6.93;2.55;;;20.80;90.80;;;;;;5033233;28;20118;-68
2021/10/24 10:13:11;;;;;;;7.43;2.47;;;21.90;90.30;;;;;;5033018;28;20158;-68
2021/10/24 10:15:41;;;;;;;8.70;2.55;;;22.00;89.70;;;;;;5032429;28;20054;-68
2021/10/24 10:18:08;;;;;;;5.43;2.20;;;24.30;87.80;;;;;;5033487;28;20460;-69
2021/10/24 10:20:45;;;;;;;7.63;2.90;;;24.80;86.50;;;;;;5033150;28;20122;-68
2021/10/24 10:23:14;;;;;;;7.68;2.10;;;24.20;88.40;;;;;;5033448;28;20053;-69
2021/10/24 10:25:43;;;;;;;5.47;2.28;;;23.60;89.20;;;;;;5032954;28;20106;-69
2021/10/24 10:28:15;;;;;;;7.88;2.67;;;25.50;86.90;;;;;;5032021;28;20049;-68
2021/10/24 10:30:44;;;;;;;6.47;2.33;;;25.50;85.50;;;;;;5034155;28;20055;-69
2021/10/24 10:33:32;;;;;;;7.25;2.20;;;24.50;86.10;;;;;;5033104;28;20809;-68
2021/10/24 10:35:59;;;;;;;6.03;2.20;;;25.90;87.10;;;;;;5031765;28;20494;-69
2021/10/24 10:38:43;;;;;;;7.65;2.60;;;23.30;84.90;;;;;;5033056;28;20138;-69
2021/10/24 10:41:12;;;;;;;9.30;2.75;;;25.10;86.80;;;;;;5033027;28;20049;-69
2021/10/24 10:43:40;;;;;;;5.47;1.73;;;26.40;86.70;;;;;;5032825;28;20098;-68
2021/10/24 10:46:09;;;;;;;6.82;2.05;;;25.70;83.50;;;;;;5032128;28;20064;-68
2021/10/24 10:48:39;;;;;;;6.43;2.20;;;23.10;83.40;;;;;;5032108;28;20110;-68
2021/10/24 10:51:24;;;;;;;7.57;2.10;;;22.20;86.10;;;;;;5033791;28;20053;-68
2021/10/24 10:53:55;;;;;;;7.43;1.85;;;25.10;85.00;;;;;;5032766;28;20437;-68
2021/10/24 10:56:31;;;;;;;4.07;1.60;;;23.50;85.70;;;;;;5032301;28;20052;-68
2021/10/24 10:58:59;;;;;;;6.33;2.17;;;25.00;85.90;;;;;;5032886;28;20045;-68
2021/10/24 11:01:33;;;;;;;5.35;1.85;;;25.30;82.20;;;;;;5033990;28;20049;-68
2021/10/24 11:04:14;;;;;;;6.28;2.00;;;23.30;82.90;;;;;;5036644;28;20060;-69
2021/10/24 11:06:56;;;;;;;5.43;1.60;;;25.10;85.70;;;;;;5035628;28;20057;-68
2021/10/24 11:09:45;;;;;;;8.18;2.10;;;24.50;81.20;;;;;;5032452;28;20106;-68
2021/10/24 11:12:34;;;;;;;4.68;1.77;;;26.00;81.80;;;;;;5031970;28;20049;-68
2021/10/24 11:15:09;;;;;;;6.35;2.10;;;26.10;79.50;;;;;;5031920;28;20045;-69
2021/10/24 11:17:39;;;;;;;6.15;1.73;;;27.70;80.70;;;;;;5033078;28;20048;-68
2021/10/24 11:20:26;;;;;;;6.32;1.90;;;24.40;80.50;;;;;;5032075;28;20049;-68
2021/10/24 11:22:59;;;;;;;5.68;1.70;;;24.80;81.30;;;;;;5032548;28;20040;-68
2021/10/24 11:25:31;;;;;;;6.20;2.20;;;24.90;81.30;;;;;;5031919;28;20115;-68
2021/10/24 11:28:03;;;;;;;6.70;2.00;;;24.30;85.60;;;;;;5032634;28;20053;-68
2021/10/24 11:30:30;;;;;;;6.60;1.77;;;24.20;83.30;;;;;;5032282;28;20080;-68
2021/10/24 11:32:59;;;;;;;4.72;2.03;;;24.20;81.70;;;;;;5032059;28;20138;-67
2021/10/24 11:35:27;;;;;;;7.30;2.00;;;24.90;80.70;;;;;;5030792;28;20102;-68
2021/10/24 11:37:56;;;;;;;5.35;1.50;;;23.50;81.60;;;;;;5035056;28;20044;-68
2021/10/24 11:40:25;;;;;;;8.45;1.85;;;24.80;84.40;;;;;;5032213;28;20520;-68
2021/10/24 11:43:06;;;;;;;4.68;1.92;;;25.40;83.60;;;;;;5031918;28;21340;-68
2021/10/24 11:45:36;;;;;;;4.85;1.85;;;24.10;80.30;;;;;;5031313;28;20154;-69
2021/10/24 11:48:06;;;;;;;9.43;2.17;;;25.00;81.30;;;;;;5031857;28;20044;-68
2021/10/24 11:50:55;;;;;;;6.53;1.63;;;24.30;82.50;;;;;;5031319;28;20052;-68
2021/10/24 11:53:31;;;;;;;5.22;1.90;;;24.80;83.60;;;;;;5031855;28;20107;-68
2021/10/24 11:56:01;;;;;;;6.78;1.95;;;25.20;81.40;;;;;;5031478;28;20215;-69
2021/10/24 12:01:16;;;;;;;;;;;24.10;83.40;;;;;;5031910;28;20123;-67
2021/10/24 12:03:52;;;;;;;6.72;1.83;;;25.30;82.40;;;;;;5032510;28;19978;-68
2021/10/24 12:06:39;;;;;;;7.22;1.85;;;23.90;81.70;;;;;;5030814;28;20056;-68
2021/10/24 12:09:08;;;;;;;7.50;1.95;;;24.90;81.10;;;;;;5031087;28;20056;-68
2021/10/24 12:11:43;;;;;;;8.32;1.95;;;25.70;79.00;;;;;;5031595;28;20473;-67
2021/10/24 12:14:12;;;;;;;3.78;1.38;;;24.00;81.60;;;;;;5032102;28;20061;-68
2021/10/24 12:16:44;;;;;;;5.68;1.73;;;25.20;83.70;;;;;;5031305;28;20041;-67
2021/10/24 12:19:28;;;;;;;3.22;1.88;;;23.60;83.00;;;;;;5031376;28;21064;-68
2021/10/24 12:22:04;;;;;;;5.65;1.58;;;25.60;80.80;;;;;;5031127;28;20140;-68
2021/10/24 12:24:45;;;;;;;6.47;1.80;;;24.40;82.30;;;;;;5031179;28;20107;-67
2021/10/24 12:27:20;;;;;;;4.45;1.63;;;23.50;81.80;;;;;;5036397;28;20060;-68
2021/10/24 12:30:01;;;;;;;6.90;1.70;;;22.70;82.70;;;;;;5038409;28;20689;-67
2021/10/24 12:32:28;;;;;;;7.20;1.65;;;23.00;86.00;;;;;;5038016;28;20060;-68
2021/10/24 12:35:12;;;;;;;6.72;1.48;;;21.60;84.00;;;;;;5038393;28;20060;-67
2021/10/24 12:37:40;;;;;;;5.57;1.40;;;21.90;86.30;;;;;;5037112;28;20501;-68
2021/10/24 12:40:22;;;;;;;5.75;1.85;;;23.20;85.20;;;;;;5037833;28;20579;-68
2021/10/24 12:43:07;;;;;;;8.05;1.50;;;23.10;84.40;;;;;;5037625;28;20480;-68
2021/10/24 12:45:52;;;;;;;6.57;1.80;;;21.90;84.30;;;;;;5037371;28;20398;-68
2021/10/24 12:48:21;;;;;;;4.57;1.42;;;23.00;84.50;;;;;;5038217;28;20055;-67
2021/10/24 12:50:49;;;;;;;4.53;1.65;;;22.20;83.50;;;;;;5042550;28;20049;-69
2021/10/24 12:53:18;;;;;;;3.60;1.63;;;23.70;83.50;;;;;;5039967;28;20052;-69
2021/10/24 12:56:00;;;;;;;5.35;1.60;;;22.50;83.80;;;;;;5039284;28;20076;-69